sensor_id;sensor_type;location;lat;lon;timestamp;temperature;humidity
37322;DHT22;23697;48.684;9.032;2023-05-28T06:25:02;13.60;74.10
37322;DHT22;23697;48.684;9.032;2023-05-28T06:27:28;13.80;71.20
37322;DHT22;23697;48.684;9.032;2023-05-28T06:29:57;13.90;70.20
37322;DHT22;23697;48.684;9.032;2023-05-28T06:32:23;14.10;70.90
37322;DHT22;23697;48.684;9.032;2023-05-28T06:34:50;14.30;69.90
37322;DHT22;23697;48.684;9.032;2023-05-28T06:37:17;14.50;70.30
37322;DHT22;23697;48.684;9.032;2023-05-28T06:39:43;14.60;70.30
37322;DHT22;23697;48.684;9.032;2023-05-28T06:42:11;14.70;69.80
37322;DHT22;23697;48.684;9.032;2023-05-28T06:44:38;14.90;69.30
37322;DHT22;23697;48.684;9.032;2023-05-28T06:47:05;15.10;68.80
37322;DHT22;23697;48.684;9.032;2023-05-28T06:49:32;15.20;67.10
37322;DHT22;23697;48.684;9.032;2023-05-28T06:51:59;15.30;64.20
37322;DHT22;23697;48.684;9.032;2023-05-28T06:54:25;15.60;64.90
37322;DHT22;23697;48.684;9.032;2023-05-28T06:56:52;15.70;64.30
37322;DHT22;23697;48.684;9.032;2023-05-28T06:59:20;16.00;63.50
37322;DHT22;23697;48.684;9.032;2023-05-28T07:01:47;16.10;62.20
37322;DHT22;23697;48.684;9.032;2023-05-28T07:04:13;16.20;61.40
37322;DHT22;23697;48.684;9.032;2023-05-28T07:06:40;16.40;61.30
37322;DHT22;23697;48.684;9.032;2023-05-28T07:09:06;16.60;60.20
37322;DHT22;23697;48.684;9.032;2023-05-28T07:11:33;16.70;61.80
37322;DHT22;23697;48.684;9.032;2023-05-28T07:14:00;16.80;59.60
37322;DHT22;23697;48.684;9.032;2023-05-28T07:16:28;16.90;60.60
37322;DHT22;23697;48.684;9.032;2023-05-28T07:18:56;17.10;58.50
37322;DHT22;23697;48.684;9.032;2023-05-28T07:21:22;17.10;59.80
37322;DHT22;23697;48.684;9.032;2023-05-28T07:23:49;17.30;58.10
37322;DHT22;23697;48.684;9.032;2023-05-28T07:28:58;17.60;58.40
37322;DHT22;23697;48.684;9.032;2023-05-28T07:31:27;17.70;57.50
37322;DHT22;23697;48.684;9.032;2023-05-28T07:33:56;17.80;57.70
37322;DHT22;23697;48.684;9.032;2023-05-28T07:36:29;17.90;57.20
37322;DHT22;23697;48.684;9.032;2023-05-28T07:38:57;18.10;57.40
37322;DHT22;23697;48.684;9.032;2023-05-28T07:41:23;18.30;57.40
37322;DHT22;23697;48.684;9.032;2023-05-28T07:44:10;18.20;55.20
37322;DHT22;23697;48.684;9.032;2023-05-28T07:46:38;18.50;56.00
37322;DHT22;23697;48.684;9.032;2023-05-28T07:49:05;18.60;55.80
37322;DHT22;23697;48.684;9.032;2023-05-28T07:51:34;18.70;52.90
37322;DHT22;23697;48.684;9.032;2023-05-28T07:54:02;18.70;54.30
37322;DHT22;23697;48.684;9.032;2023-05-28T07:56:48;18.90;53.70
37322;DHT22;23697;48.684;9.032;2023-05-28T08:02:40;19.10;53.90
37322;DHT22;23697;48.684;9.032;2023-05-28T08:05:07;19.30;52.50
37322;DHT22;23697;48.684;9.032;2023-05-28T08:07:35;19.40;52.90
37322;DHT22;23697;48.684;9.032;2023-05-28T08:10:07;19.60;51.80
37322;DHT22;23697;48.684;9.032;2023-05-28T08:12:35;19.70;52.50
37322;DHT22;23697;48.684;9.032;2023-05-28T08:15:05;19.70;48.90
37322;DHT22;23697;48.684;9.032;2023-05-28T08:20:27;20.00;48.70
37322;DHT22;23697;48.684;9.032;2023-05-28T08:22:55;20.00;49.60
37322;DHT22;23697;48.684;9.032;2023-05-28T08:25:22;20.20;51.70
37322;DHT22;23697;48.684;9.032;2023-05-28T08:27:55;20.30;48.50
37322;DHT22;23697;48.684;9.032;2023-05-28T08:30:35;20.50;52.80
37322;DHT22;23697;48.684;9.032;2023-05-28T08:33:01;20.60;50.60
37322;DHT22;23697;48.684;9.032;2023-05-28T08:35:31;20.60;49.00
37322;DHT22;23697;48.684;9.032;2023-05-28T08:37:58;20.60;48.60
37322;DHT22;23697;48.684;9.032;2023-05-28T08:40:25;20.60;47.10
37322;DHT22;23697;48.684;9.032;2023-05-28T08:42:53;20.60;46.80
37322;DHT22;23697;48.684;9.032;2023-05-28T08:45:21;20.60;47.60
37322;DHT22;23697;48.684;9.032;2023-05-28T08:47:47;20.80;49.40
37322;DHT22;23697;48.684;9.032;2023-05-28T08:50:16;20.90;47.40
37322;DHT22;23697;48.684;9.032;2023-05-28T08:52:44;20.90;47.30
37322;DHT22;23697;48.684;9.032;2023-05-28T08:55:11;21.10;47.30
37322;DHT22;23697;48.684;9.032;2023-05-28T08:57:53;21.30;47.00
37322;DHT22;23697;48.684;9.032;2023-05-28T09:00:29;21.30;45.50
37322;DHT22;23697;48.684;9.032;2023-05-28T09:02:58;21.30;46.10
37322;DHT22;23697;48.684;9.032;2023-05-28T09:05:24;21.50;46.30
37322;DHT22;23697;48.684;9.032;2023-05-28T09:10:36;21.80;45.50
37322;DHT22;23697;48.684;9.032;2023-05-28T09:13:04;22.10;45.40
37322;DHT22;23697;48.684;9.032;2023-05-28T09:15:51;22.20;45.40
37322;DHT22;23697;48.684;9.032;2023-05-28T09:18:19;22.20;41.60
37322;DHT22;23697;48.684;9.032;2023-05-28T09:20:45;22.10;45.20
37322;DHT22;23697;48.684;9.032;2023-05-28T09:23:12;22.30;46.10
37322;DHT22;23697;48.684;9.032;2023-05-28T09:25:43;22.30;42.90
37322;DHT22;23697;48.684;9.032;2023-05-28T09:28:10;22.30;42.60
37322;DHT22;23697;48.684;9.032;2023-05-28T09:30:37;22.10;42.90
37322;DHT22;23697;48.684;9.032;2023-05-28T09:33:04;22.30;43.40
37322;DHT22;23697;48.684;9.032;2023-05-28T09:35:32;22.50;43.10
37322;DHT22;23697;48.684;9.032;2023-05-28T09:38:00;22.60;40.60
37322;DHT22;23697;48.684;9.032;2023-05-28T09:40:27;22.60;41.50
37322;DHT22;23697;48.684;9.032;2023-05-28T09:42:55;22.50;41.60
37322;DHT22;23697;48.684;9.032;2023-05-28T15:54:04;24.70;33.20
37322;DHT22;23697;48.684;9.032;2023-05-28T15:56:30;24.70;32.70
37322;DHT22;23697;48.684;9.032;2023-05-28T15:58:57;24.70;35.10
37322;DHT22;23697;48.684;9.032;2023-05-28T16:01:24;24.80;34.50
37322;DHT22;23697;48.684;9.032;2023-05-28T16:03:51;24.80;34.60
37322;DHT22;23697;48.684;9.032;2023-05-28T16:06:18;24.70;34.00
37322;DHT22;23697;48.684;9.032;2023-05-28T16:08:44;24.60;34.10
37322;DHT22;23697;48.684;9.032;2023-05-28T16:11:13;24.60;35.70
37322;DHT22;23697;48.684;9.032;2023-05-28T16:13:40;24.60;34.90
37322;DHT22;23697;48.684;9.032;2023-05-28T16:16:07;24.70;35.70
37322;DHT22;23697;48.684;9.032;2023-05-28T16:18:34;24.50;35.60
37322;DHT22;23697;48.684;9.032;2023-05-28T16:21:01;24.50;35.30
37322;DHT22;23697;48.684;9.032;2023-05-28T16:23:29;24.50;36.20
37322;DHT22;23697;48.684;9.032;2023-05-28T16:25:56;24.40;37.50
37322;DHT22;23697;48.684;9.032;2023-05-28T16:28:24;24.40;35.80
37322;DHT22;23697;48.684;9.032;2023-05-28T16:30:52;24.40;35.50
37322;DHT22;23697;48.684;9.032;2023-05-28T16:33:20;24.30;34.90
37322;DHT22;23697;48.684;9.032;2023-05-28T16:35:47;24.20;34.70
37322;DHT22;23697;48.684;9.032;2023-05-28T16:38:15;24.10;35.80
37322;DHT22;23697;48.684;9.032;2023-05-28T16:40:42;24.10;35.30
37322;DHT22;23697;48.684;9.032;2023-05-28T16:43:11;23.90;34.60
37322;DHT22;23697;48.684;9.032;2023-05-28T16:45:44;23.70;35.10
37322;DHT22;23697;48.684;9.032;2023-05-28T16:48:12;23.50;34.90
37322;DHT22;23697;48.684;9.032;2023-05-28T16:50:40;23.50;35.90
37322;DHT22;23697;48.684;9.032;2023-05-28T16:53:10;23.20;35.80
37322;DHT22;23697;48.684;9.032;2023-05-28T16:55:41;23.10;36.00
37322;DHT22;23697;48.684;9.032;2023-05-28T16:58:08;23.00;36.10
37322;DHT22;23697;48.684;9.032;2023-05-28T17:00:36;23.00;36.20
37322;DHT22;23697;48.684;9.032;2023-05-28T17:03:14;22.80;37.00
37322;DHT22;23697;48.684;9.032;2023-05-28T17:05:41;22.80;36.40
37322;DHT22;23697;48.684;9.032;2023-05-28T17:08:08;22.70;38.00
37322;DHT22;23697;48.684;9.032;2023-05-28T17:10:35;22.70;38.30
37322;DHT22;23697;48.684;9.032;2023-05-28T17:13:02;22.70;37.80
37322;DHT22;23697;48.684;9.032;2023-05-28T17:15:29;22.70;37.00
37322;DHT22;23697;48.684;9.032;2023-05-28T17:17:56;22.60;37.80
37322;DHT22;23697;48.684;9.032;2023-05-28T17:20:32;22.60;37.20
37322;DHT22;23697;48.684;9.032;2023-05-28T17:23:05;22.40;37.80
37322;DHT22;23697;48.684;9.032;2023-05-28T17:25:32;22.30;38.80
37322;DHT22;23697;48.684;9.032;2023-05-28T17:27:58;22.40;37.40
37322;DHT22;23697;48.684;9.032;2023-05-28T17:30:25;22.40;38.90
37322;DHT22;23697;48.684;9.032;2023-05-28T17:32:52;22.30;37.80
37322;DHT22;23697;48.684;9.032;2023-05-28T17:35:19;22.30;37.80
37322;DHT22;23697;48.684;9.032;2023-05-28T17:37:47;22.30;38.00
37322;DHT22;23697;48.684;9.032;2023-05-28T17:40:15;22.30;38.40
37322;DHT22;23697;48.684;9.032;2023-05-28T17:42:42;22.20;39.60
37322;DHT22;23697;48.684;9.032;2023-05-28T17:45:08;22.10;38.70
37322;DHT22;23697;48.684;9.032;2023-05-28T17:47:35;22.10;38.80
37322;DHT22;23697;48.684;9.032;2023-05-28T20:10:51;18.00;50.90
37322;DHT22;23697;48.684;9.032;2023-05-28T20:13:52;17.80;51.50
37322;DHT22;23697;48.684;9.032;2023-05-28T20:16:24;17.80;52.40
37322;DHT22;23697;48.684;9.032;2023-05-28T20:19:18;17.70;52.60
37322;DHT22;23697;48.684;9.032;2023-05-28T20:21:58;17.60;51.80
37322;DHT22;23697;48.684;9.032;2023-05-28T20:24:33;17.60;52.10
37322;DHT22;23697;48.684;9.032;2023-05-28T20:27:23;17.60;52.40
37322;DHT22;23697;48.684;9.032;2023-05-28T20:30:04;17.50;53.20
37322;DHT22;23697;48.684;9.032;2023-05-28T20:32:40;17.40;53.40
37322;DHT22;23697;48.684;9.032;2023-05-28T20:35:11;17.30;53.30
37322;DHT22;23697;48.684;9.032;2023-05-28T20:37:50;17.30;53.20
37322;DHT22;23697;48.684;9.032;2023-05-28T20:40:40;17.30;53.40
37322;DHT22;23697;48.684;9.032;2023-05-28T20:43:14;17.20;53.40
37322;DHT22;23697;48.684;9.032;2023-05-28T20:45:49;17.10;52.90
37322;DHT22;23697;48.684;9.032;2023-05-28T20:48:34;17.10;54.50
37322;DHT22;23697;48.684;9.032;2023-05-28T20:51:24;17.10;54.40
37322;DHT22;23697;48.684;9.032;2023-05-28T20:53:55;17.10;54.90
37322;DHT22;23697;48.684;9.032;2023-05-28T20:56:38;17.00;55.20
37322;DHT22;23697;48.684;9.032;2023-05-28T20:59:13;16.90;55.70
37322;DHT22;23697;48.684;9.032;2023-05-28T21:04:37;16.70;55.70
37322;DHT22;23697;48.684;9.032;2023-05-28T21:07:09;16.60;55.80
37322;DHT22;23697;48.684;9.032;2023-05-28T21:10:30;16.60;56.80
37322;DHT22;23697;48.684;9.032;2023-05-28T21:12:55;16.50;56.30
37322;DHT22;23697;48.684;9.032;2023-05-28T21:15:42;16.50;56.10
37322;DHT22;23697;48.684;9.032;2023-05-28T21:18:28;16.40;56.70
37322;DHT22;23697;48.684;9.032;2023-05-28T21:21:17;16.30;57.70
37322;DHT22;23697;48.684;9.032;2023-05-28T21:24:03;16.30;57.50
37322;DHT22;23697;48.684;9.032;2023-05-28T21:26:39;16.20;57.80
37322;DHT22;23697;48.684;9.032;2023-05-28T21:29:11;16.10;58.40
37322;DHT22;23697;48.684;9.032;2023-05-28T21:31:53;16.10;58.70
37322;DHT22;23697;48.684;9.032;2023-05-28T21:34:35;16.10;59.20
37322;DHT22;23697;48.684;9.032;2023-05-28T21:37:19;15.90;59.30
37322;DHT22;23697;48.684;9.032;2023-05-28T21:40:08;15.90;58.90
37322;DHT22;23697;48.684;9.032;2023-05-28T21:42:47;15.90;59.80
37322;DHT22;23697;48.684;9.032;2023-05-28T21:45:44;15.90;59.00
37322;DHT22;23697;48.684;9.032;2023-05-28T21:48:20;15.80;60.20
37322;DHT22;23697;48.684;9.032;2023-05-28T21:51:04;15.70;60.40
37322;DHT22;23697;48.684;9.032;2023-05-28T21:53:43;15.60;60.20
37322;DHT22;23697;48.684;9.032;2023-05-28T21:56:24;15.70;60.90
37322;DHT22;23697;48.684;9.032;2023-05-28T22:02:28;15.60;61.00
37322;DHT22;23697;48.684;9.032;2023-05-28T22:05:13;15.50;61.50
37322;DHT22;23697;48.684;9.032;2023-05-28T22:07:55;15.50;61.30
37322;DHT22;23697;48.684;9.032;2023-05-28T22:10:39;15.40;61.80
37322;DHT22;23697;48.684;9.032;2023-05-28T22:19:31;15.10;62.60
